createdAt,value
2022-08-26T00:00:42.197Z,24.77
2022-08-26T00:01:42.266Z,24.44
2022-08-26T00:02:42.362Z,24.77
2022-08-26T00:03:42.474Z,26.05
2022-08-26T00:04:42.486Z,24.44
2022-08-26T00:05:42.542Z,24.12
2022-08-26T00:06:46.289Z,24.44
2022-08-26T00:07:43.435Z,25.09
2022-08-26T00:08:42.778Z,24.44
2022-08-26T00:09:42.800Z,24.12
2022-08-26T00:10:42.864Z,24.77
2022-08-26T00:11:42.920Z,25.09
2022-08-26T00:12:43.003Z,23.80
2022-08-26T00:13:47.995Z,24.44
2022-08-26T00:14:43.098Z,24.44
2022-08-26T00:15:43.145Z,24.44
2022-08-26T00:16:47.617Z,24.44
2022-08-26T00:17:43.254Z,24.44
2022-08-26T00:18:43.306Z,25.09
2022-08-26T00:19:43.387Z,24.77
2022-08-26T00:20:43.429Z,24.44
2022-08-26T00:21:43.499Z,24.77
2022-08-26T00:22:43.584Z,24.12
2022-08-26T00:23:43.622Z,24.12
2022-08-26T00:24:47.926Z,22.51
2022-08-26T00:25:43.766Z,25.09
2022-08-26T00:26:43.840Z,24.77
2022-08-26T00:27:43.897Z,24.44
2022-08-26T00:28:43.977Z,25.09
2022-08-26T00:29:44.015Z,24.12
2022-08-26T00:30:44.086Z,26.38
2022-08-26T00:31:45.303Z,25.09
2022-08-26T00:32:44.210Z,24.44
2022-08-26T00:33:44.240Z,24.12
2022-08-26T00:34:44.309Z,26.70
2022-08-26T00:35:45.306Z,23.80
2022-08-26T00:36:44.422Z,24.77
2022-08-26T00:37:44.487Z,23.80
2022-08-26T00:38:44.517Z,24.44
2022-08-26T00:39:44.557Z,24.77
2022-08-26T00:40:44.620Z,26.38
2022-08-26T00:41:44.657Z,23.48
2022-08-26T00:42:46.130Z,24.77
2022-08-26T00:43:47.744Z,24.77
2022-08-26T00:44:44.836Z,24.77
2022-08-26T00:45:44.985Z,25.09
2022-08-26T00:46:46.974Z,24.44
2022-08-26T00:47:45.014Z,25.73
2022-08-26T00:48:45.049Z,25.73
2022-08-26T00:49:45.113Z,24.44
2022-08-26T00:50:45.180Z,22.83
2022-08-26T00:51:45.251Z,23.15
2022-08-26T00:52:45.337Z,24.44
2022-08-26T00:53:45.379Z,26.05
2022-08-26T00:54:45.451Z,24.77
2022-08-26T00:55:45.506Z,24.44
2022-08-26T00:56:45.564Z,24.77
2022-08-26T00:57:45.632Z,24.12
2022-08-26T00:58:45.741Z,24.44
2022-08-26T00:59:45.745Z,24.44
2022-08-26T01:00:45.856Z,24.44
2022-08-26T01:01:47.494Z,24.44
2022-08-26T01:02:46.947Z,23.80
2022-08-26T01:03:46.018Z,24.77
2022-08-26T01:04:46.076Z,25.09
2022-08-26T01:05:46.126Z,24.77
2022-08-26T01:06:46.205Z,23.15
2022-08-26T01:07:46.238Z,24.44
2022-08-26T01:08:46.306Z,25.41
2022-08-26T01:09:46.392Z,24.77
2022-08-26T01:10:46.432Z,24.12
2022-08-26T01:11:46.525Z,24.44
2022-08-26T01:12:46.559Z,25.09
2022-08-26T01:13:46.618Z,24.44
2022-08-26T01:14:46.692Z,24.77
2022-08-26T01:15:46.762Z,24.77
2022-08-26T01:16:46.866Z,24.12
2022-08-26T01:17:46.902Z,23.80
2022-08-26T01:18:46.991Z,24.44
2022-08-26T01:19:47.032Z,24.12
2022-08-26T01:20:47.122Z,24.12
2022-08-26T01:21:47.179Z,26.05
2022-08-26T01:22:47.238Z,25.09
2022-08-26T01:23:47.306Z,24.12
2022-08-26T01:24:47.368Z,24.77
2022-08-26T01:25:47.460Z,24.12
2022-08-26T01:26:47.510Z,24.12
2022-08-26T01:27:49.068Z,24.77
2022-08-26T01:28:50.609Z,24.12
2022-08-26T01:29:47.714Z,24.12
2022-08-26T01:30:47.806Z,24.44
2022-08-26T01:31:47.879Z,23.80
2022-08-26T01:32:47.940Z,24.44
2022-08-26T01:33:48.013Z,25.41
2022-08-26T01:34:48.087Z,24.44
2022-08-26T01:35:48.166Z,24.12
2022-08-26T01:36:51.636Z,25.09
2022-08-26T01:37:48.321Z,24.44
2022-08-26T01:38:48.418Z,25.09
2022-08-26T01:39:48.554Z,24.44
2022-08-26T01:40:48.571Z,26.05
2022-08-26T01:41:48.620Z,24.12
2022-08-26T01:42:48.698Z,24.77
2022-08-26T01:43:48.738Z,24.12
2022-08-26T01:44:48.824Z,23.15
2022-08-26T01:45:48.942Z,24.44
2022-08-26T01:46:48.956Z,24.12
2022-08-26T01:47:48.988Z,24.12
2022-08-26T01:48:49.058Z,24.77
2022-08-26T01:49:49.118Z,24.12
2022-08-26T01:50:49.209Z,23.15
2022-08-26T01:51:49.255Z,25.41
2022-08-26T01:52:49.939Z,25.09
2022-08-26T01:53:49.371Z,24.12
2022-08-26T01:54:50.488Z,24.44
2022-08-26T01:55:49.509Z,24.12
2022-08-26T01:56:49.596Z,24.77
2022-08-26T01:57:49.630Z,24.44
2022-08-26T01:58:49.690Z,24.77
2022-08-26T01:59:49.738Z,24.44
2022-08-26T02:00:50.485Z,23.48
2022-08-26T02:01:49.875Z,24.12
2022-08-26T02:02:49.968Z,24.12
2022-08-26T02:03:50.000Z,24.12
2022-08-26T02:04:50.140Z,24.44
2022-08-26T02:05:51.377Z,25.73
2022-08-26T02:06:50.215Z,24.12
2022-08-26T02:07:50.288Z,22.51
2022-08-26T02:08:50.436Z,24.12
2022-08-26T02:09:50.423Z,24.44
2022-08-26T02:10:50.496Z,23.80
2022-08-26T02:11:51.072Z,24.12
2022-08-26T02:12:50.724Z,24.77
2022-08-26T02:13:50.686Z,24.44
2022-08-26T02:14:51.207Z,23.80
2022-08-26T02:15:50.831Z,25.41
2022-08-26T02:16:50.914Z,24.12
2022-08-26T02:17:52.806Z,24.12
2022-08-26T02:18:52.759Z,24.12
2022-08-26T02:19:51.090Z,25.41
2022-08-26T02:20:51.694Z,24.12
2022-08-26T02:21:51.882Z,24.44
2022-08-26T02:22:51.321Z,24.12
2022-08-26T02:23:51.359Z,24.44
2022-08-26T02:24:51.446Z,24.12
2022-08-26T02:25:51.526Z,24.12
2022-08-26T02:26:51.582Z,24.44
2022-08-26T02:27:51.634Z,25.09
2022-08-26T02:28:51.698Z,23.80
2022-08-26T02:29:51.754Z,24.12
2022-08-26T02:30:51.847Z,24.77
2022-08-26T02:31:51.957Z,24.77
2022-08-26T02:32:51.943Z,24.77
2022-08-26T02:33:51.990Z,24.12
2022-08-26T02:34:52.072Z,23.80
2022-08-26T02:35:52.158Z,24.77
2022-08-26T02:36:52.190Z,24.44
2022-08-26T02:37:52.260Z,23.80
2022-08-26T02:38:52.302Z,22.83
2022-08-26T02:39:52.416Z,24.12
2022-08-26T02:40:52.444Z,23.80
2022-08-26T02:41:52.497Z,23.80
2022-08-26T02:42:53.020Z,24.77
2022-08-26T02:43:52.605Z,24.12
2022-08-26T02:44:52.687Z,24.44
2022-08-26T02:45:52.731Z,24.12
2022-08-26T02:46:52.866Z,23.80
2022-08-26T02:47:52.919Z,23.80
2022-08-26T02:48:52.925Z,24.44
2022-08-26T02:49:53.005Z,24.12
2022-08-26T02:50:53.073Z,23.80
2022-08-26T02:51:53.136Z,24.77
2022-08-26T02:52:53.197Z,24.12
2022-08-26T02:53:53.277Z,24.44
2022-08-26T02:54:53.343Z,23.80
2022-08-26T02:55:53.392Z,24.44
2022-08-26T02:56:53.489Z,24.12
2022-08-26T02:57:53.540Z,24.77
2022-08-26T02:58:53.632Z,24.12
2022-08-26T02:59:53.689Z,25.09
2022-08-26T03:00:53.886Z,24.77
2022-08-26T03:01:56.054Z,25.09
2022-08-26T03:02:53.885Z,24.12
2022-08-26T03:03:53.928Z,22.83
2022-08-26T03:04:58.010Z,23.80
2022-08-26T03:05:54.061Z,24.44
2022-08-26T03:06:55.276Z,23.80
2022-08-26T03:07:54.214Z,24.77
2022-08-26T03:08:54.246Z,24.77
2022-08-26T03:09:54.366Z,24.12
2022-08-26T03:10:54.403Z,24.12
2022-08-26T03:11:54.471Z,23.80
2022-08-26T03:12:54.498Z,25.41
2022-08-26T03:13:54.557Z,24.12
2022-08-26T03:14:54.650Z,23.48
2022-08-26T03:15:54.708Z,24.12
2022-08-26T03:16:54.791Z,23.80
2022-08-26T03:17:54.815Z,24.12
2022-08-26T03:18:54.909Z,25.41
2022-08-26T03:19:57.199Z,24.44
2022-08-26T03:20:54.959Z,22.51
2022-08-26T03:21:57.988Z,23.80
2022-08-26T03:22:56.233Z,24.12
2022-08-26T03:23:55.127Z,24.12
2022-08-26T03:24:55.209Z,24.12
2022-08-26T03:25:55.276Z,24.77
2022-08-26T03:26:55.352Z,23.80
2022-08-26T03:27:55.378Z,25.41
2022-08-26T03:28:55.442Z,23.15
2022-08-26T03:29:55.516Z,23.80
2022-08-26T03:30:55.603Z,22.83
2022-08-26T03:31:55.610Z,25.09
2022-08-26T03:32:55.685Z,25.41
2022-08-26T03:33:59.197Z,24.44
2022-08-26T03:34:55.810Z,23.80
2022-08-26T03:35:55.863Z,24.12
2022-08-26T03:36:55.893Z,24.77
2022-08-26T03:37:55.983Z,24.12
2022-08-26T03:38:56.048Z,25.09
2022-08-26T03:39:56.130Z,24.44
2022-08-26T03:40:56.174Z,23.80
2022-08-26T03:41:56.269Z,24.12
2022-08-26T03:42:56.325Z,23.80
2022-08-26T03:43:59.676Z,23.15
2022-08-26T03:44:56.488Z,24.12
2022-08-26T03:45:56.539Z,24.12
2022-08-26T03:46:56.592Z,24.77
2022-08-26T03:47:57.790Z,24.12
2022-08-26T03:48:56.738Z,24.12
2022-08-26T03:49:56.781Z,24.12
2022-08-26T03:50:56.853Z,24.77
2022-08-26T03:51:56.932Z,23.80
2022-08-26T03:52:57.016Z,25.41
2022-08-26T03:53:57.171Z,25.41
2022-08-26T03:54:57.122Z,24.12
2022-08-26T03:55:57.189Z,24.12
2022-08-26T03:56:57.273Z,24.77
2022-08-26T03:57:57.333Z,24.12
2022-08-26T03:58:57.425Z,24.44
2022-08-26T03:59:57.463Z,22.83
2022-08-26T04:00:57.499Z,23.80
2022-08-26T04:01:57.698Z,24.12
2022-08-26T04:02:58.503Z,25.09
2022-08-26T04:03:57.768Z,23.80
2022-08-26T04:04:57.836Z,24.12
2022-08-26T04:05:57.852Z,23.80
2022-08-26T04:06:57.969Z,24.12
2022-08-26T04:07:57.972Z,24.77
2022-08-26T04:08:58.076Z,24.44
2022-08-26T04:09:58.084Z,24.12
2022-08-26T04:10:58.271Z,24.12
2022-08-26T04:11:58.407Z,24.77
2022-08-26T04:13:03.763Z,23.80
2022-08-26T04:13:58.368Z,25.73
2022-08-26T04:14:58.490Z,23.15
2022-08-26T04:15:58.585Z,24.44
2022-08-26T04:16:58.573Z,24.12
2022-08-26T04:17:58.648Z,23.80
2022-08-26T04:18:58.715Z,24.44
2022-08-26T04:19:58.740Z,24.12
2022-08-26T04:20:58.772Z,23.48
2022-08-26T04:21:58.879Z,23.15
2022-08-26T04:22:58.994Z,24.12
2022-08-26T04:23:59.134Z,23.80
2022-08-26T04:24:59.068Z,23.80
2022-08-26T04:25:59.112Z,23.80
2022-08-26T04:26:59.193Z,24.12
2022-08-26T04:27:59.284Z,24.12
2022-08-26T04:28:59.390Z,24.44
2022-08-26T04:29:59.403Z,22.51
2022-08-26T04:30:59.568Z,24.12
2022-08-26T04:31:59.536Z,24.12
2022-08-26T04:32:59.572Z,24.44
2022-08-26T04:33:59.691Z,23.48
2022-08-26T04:34:59.704Z,25.41
2022-08-26T04:36:00.330Z,25.09
2022-08-26T04:36:59.967Z,24.12
2022-08-26T04:37:59.937Z,23.80
2022-08-26T04:39:00.007Z,22.83
2022-08-26T04:40:00.242Z,23.48
2022-08-26T04:41:00.133Z,24.12
2022-08-26T04:42:00.166Z,24.44
2022-08-26T04:43:00.305Z,24.44
2022-08-26T04:44:00.377Z,25.41
2022-08-26T04:45:00.340Z,23.80
2022-08-26T04:46:00.528Z,24.44
2022-08-26T04:47:00.478Z,24.44
2022-08-26T04:48:00.610Z,25.73
2022-08-26T04:49:00.635Z,24.44
2022-08-26T04:50:01.964Z,24.12
2022-08-26T04:51:00.732Z,25.09
2022-08-26T04:52:00.837Z,24.77
2022-08-26T04:53:00.912Z,24.44
2022-08-26T04:54:00.975Z,24.44
2022-08-26T04:55:01.003Z,24.44
2022-08-26T04:56:01.138Z,23.80
2022-08-26T04:57:01.160Z,24.12
2022-08-26T04:58:01.268Z,25.41
2022-08-26T04:59:01.347Z,24.44
2022-08-26T05:00:01.388Z,23.80
2022-08-26T05:01:01.389Z,26.38
2022-08-26T05:02:01.564Z,25.09
2022-08-26T05:03:01.644Z,24.44
2022-08-26T05:04:01.701Z,24.77
2022-08-26T05:05:01.685Z,24.44
2022-08-26T05:06:01.791Z,23.15
2022-08-26T05:07:02.322Z,25.41
2022-08-26T05:08:01.883Z,25.09
2022-08-26T05:09:01.913Z,24.12
2022-08-26T05:10:01.980Z,25.09
2022-08-26T05:11:02.056Z,25.09
2022-08-26T05:12:02.097Z,25.09
2022-08-26T05:13:02.272Z,24.44
2022-08-26T05:14:02.556Z,24.44
2022-08-26T05:15:02.299Z,25.73
2022-08-26T05:16:02.388Z,24.44
2022-08-26T05:17:02.412Z,23.48
2022-08-26T05:18:02.507Z,25.41
2022-08-26T05:19:02.554Z,23.80
2022-08-26T05:20:02.621Z,24.44
2022-08-26T05:21:02.702Z,24.12
2022-08-26T05:22:02.755Z,24.44
2022-08-26T05:23:02.824Z,25.09
2022-08-26T05:24:02.881Z,25.41
2022-08-26T05:25:02.945Z,25.73
2022-08-26T05:26:04.947Z,24.44
2022-08-26T05:27:03.079Z,24.77
2022-08-26T05:28:03.117Z,24.12
2022-08-26T05:29:03.162Z,23.15
2022-08-26T05:30:03.228Z,24.44
2022-08-26T05:31:03.377Z,26.05
2022-08-26T05:32:03.355Z,25.09
2022-08-26T05:33:03.433Z,23.48
2022-08-26T05:34:03.852Z,24.12
2022-08-26T05:35:03.586Z,24.12
2022-08-26T05:36:03.659Z,25.09
2022-08-26T05:37:03.717Z,24.77
2022-08-26T05:38:03.787Z,24.12
2022-08-26T05:39:03.887Z,25.09
2022-08-26T05:40:04.006Z,24.44
2022-08-26T05:41:03.983Z,24.77
2022-08-26T05:42:04.065Z,25.09
2022-08-26T05:43:04.273Z,24.44
2022-08-26T05:44:04.190Z,25.09
2022-08-26T05:45:04.251Z,23.15
2022-08-26T05:46:04.326Z,24.77
2022-08-26T05:47:04.397Z,25.41
2022-08-26T05:48:04.462Z,25.09
2022-08-26T05:49:04.505Z,25.73
2022-08-26T05:50:04.589Z,25.09
2022-08-26T05:51:04.652Z,25.41
2022-08-26T05:52:04.728Z,23.80
2022-08-26T05:53:04.814Z,25.09
2022-08-26T05:54:04.843Z,24.77
2022-08-26T05:55:04.924Z,27.02
2022-08-26T05:56:04.992Z,25.73
2022-08-26T05:57:05.056Z,25.73
2022-08-26T05:58:05.119Z,25.41
2022-08-26T05:59:05.167Z,27.34
2022-08-26T06:00:05.229Z,25.41
2022-08-26T06:01:05.308Z,25.73
2022-08-26T06:02:05.434Z,24.12
2022-08-26T06:03:05.625Z,25.41
2022-08-26T06:04:05.491Z,24.77
2022-08-26T06:05:05.564Z,26.05
2022-08-26T06:06:05.638Z,26.38
2022-08-26T06:07:05.741Z,25.41
2022-08-26T06:08:05.801Z,25.41
2022-08-26T06:09:05.858Z,25.41
2022-08-26T06:10:31.126Z,26.38
2022-08-26T06:11:05.985Z,26.38
2022-08-26T06:12:06.063Z,25.41
2022-08-26T06:13:11.489Z,26.38
2022-08-26T06:14:06.199Z,26.05
2022-08-26T06:15:06.257Z,26.05
2022-08-26T06:16:06.344Z,25.73
2022-08-26T06:17:06.390Z,26.05
2022-08-26T06:18:06.470Z,26.38
2022-08-26T06:19:10.893Z,25.73
2022-08-26T06:20:06.569Z,24.12
2022-08-26T06:21:06.654Z,27.99
2022-08-26T06:22:06.714Z,26.38
2022-08-26T06:23:06.774Z,27.02
2022-08-26T06:24:06.831Z,27.67
2022-08-26T06:25:06.900Z,26.70
2022-08-26T06:26:06.957Z,26.05
2022-08-26T06:27:07.005Z,26.70
2022-08-26T06:28:07.087Z,25.41
2022-08-26T06:29:07.129Z,26.70
2022-08-26T06:30:07.201Z,26.70
2022-08-26T06:31:07.311Z,26.70
2022-08-26T06:32:07.334Z,26.70
2022-08-26T06:33:07.641Z,27.34
2022-08-26T06:34:10.809Z,27.34
2022-08-26T06:35:11.889Z,28.31
2022-08-26T06:36:07.619Z,27.99
2022-08-26T06:37:07.669Z,27.34
2022-08-26T06:38:07.772Z,27.99
2022-08-26T06:39:07.818Z,27.67
2022-08-26T06:40:07.948Z,26.70
2022-08-26T06:41:07.949Z,27.99
2022-08-26T06:42:08.004Z,27.02
2022-08-26T06:43:08.215Z,28.31
2022-08-26T06:44:08.130Z,28.63
2022-08-26T06:45:08.188Z,27.34
2022-08-26T06:46:08.318Z,29.28
2022-08-26T06:47:08.326Z,28.63
2022-08-26T06:48:08.438Z,29.60
2022-08-26T06:49:08.499Z,29.60
2022-08-26T06:50:08.578Z,30.89
2022-08-26T06:51:08.578Z,29.92
2022-08-26T06:52:08.646Z,29.60
2022-08-26T06:53:08.862Z,29.60
2022-08-26T06:54:08.795Z,30.24
2022-08-26T06:55:08.845Z,29.92
2022-08-26T06:56:08.883Z,29.60
2022-08-26T06:57:08.964Z,30.57
2022-08-26T06:58:09.040Z,30.24
2022-08-26T06:59:09.106Z,30.57
2022-08-26T07:00:09.163Z,30.24
2022-08-26T07:01:11.507Z,29.60
2022-08-26T07:02:09.419Z,30.24
2022-08-26T07:03:09.547Z,29.60
2022-08-26T07:04:10.670Z,29.60
2022-08-26T07:05:09.481Z,28.96
2022-08-26T07:06:09.571Z,29.92
2022-08-26T07:07:09.731Z,29.60
2022-08-26T07:08:09.700Z,29.28
2022-08-26T07:09:10.130Z,29.60
2022-08-26T07:10:09.794Z,30.24
2022-08-26T07:11:09.827Z,29.28
2022-08-26T07:12:09.926Z,28.96
2022-08-26T07:13:09.980Z,30.24
2022-08-26T07:14:10.020Z,29.28
2022-08-26T07:15:10.089Z,29.92
2022-08-26T07:16:10.167Z,32.50
2022-08-26T07:17:13.939Z,29.92
2022-08-26T07:18:10.308Z,30.57
2022-08-26T07:19:11.169Z,30.57
2022-08-26T07:20:10.408Z,30.57
2022-08-26T07:21:10.518Z,30.89
2022-08-26T07:22:10.579Z,31.21
2022-08-26T07:23:11.824Z,30.89
2022-08-26T07:24:11.202Z,32.82
2022-08-26T07:25:10.741Z,31.86
2022-08-26T07:26:11.792Z,32.18
2022-08-26T07:27:10.882Z,32.82
2022-08-26T07:28:10.955Z,32.82
2022-08-26T07:29:11.004Z,32.18
2022-08-26T07:30:11.061Z,32.82
2022-08-26T07:31:11.218Z,32.18
2022-08-26T07:32:11.228Z,32.18
2022-08-26T07:33:11.291Z,32.82
2022-08-26T07:34:11.324Z,32.82
2022-08-26T07:35:11.397Z,32.18
2022-08-26T07:36:11.464Z,33.79
2022-08-26T07:37:11.522Z,33.14
2022-08-26T07:38:11.588Z,33.79
2022-08-26T07:39:11.627Z,34.11
2022-08-26T07:40:11.830Z,33.47
2022-08-26T07:41:11.791Z,34.76
2022-08-26T07:42:11.885Z,34.76
2022-08-26T07:43:13.170Z,34.76
2022-08-26T07:44:11.966Z,34.43
2022-08-26T07:45:12.072Z,34.43
2022-08-26T07:46:16.268Z,34.11
2022-08-26T07:47:25.040Z,34.11
2022-08-26T07:48:12.276Z,35.40
2022-08-26T07:49:12.363Z,35.72
2022-08-26T07:50:12.365Z,35.40
2022-08-26T07:51:12.450Z,34.76
2022-08-26T07:52:12.501Z,35.08
2022-08-26T07:53:12.650Z,33.47
2022-08-26T07:54:12.619Z,34.76
2022-08-26T07:55:12.704Z,34.43
2022-08-26T07:56:12.749Z,34.43
2022-08-26T07:57:12.822Z,34.11
2022-08-26T07:58:12.888Z,33.79
2022-08-26T07:59:13.952Z,33.14
2022-08-26T08:00:13.004Z,33.47
2022-08-26T08:01:13.114Z,33.47
2022-08-26T08:02:13.119Z,35.72
2022-08-26T08:03:13.226Z,33.14
2022-08-26T08:04:13.254Z,33.79
2022-08-26T08:05:13.377Z,31.86
2022-08-26T08:06:13.394Z,32.82
2022-08-26T08:07:13.463Z,33.79
2022-08-26T08:08:26.795Z,33.47
2022-08-26T08:09:13.606Z,34.43
2022-08-26T08:10:13.674Z,34.43
2022-08-26T08:11:13.737Z,32.50
2022-08-26T08:12:14.128Z,33.47
2022-08-26T08:13:13.881Z,34.76
2022-08-26T08:14:13.942Z,34.11
2022-08-26T08:15:14.022Z,34.43
2022-08-26T08:16:14.049Z,34.76
2022-08-26T08:17:14.127Z,33.79
2022-08-26T08:18:15.794Z,35.72
2022-08-26T08:19:14.247Z,35.72
2022-08-26T08:20:14.414Z,36.04
2022-08-26T08:21:23.854Z,35.72
2022-08-26T08:22:17.857Z,36.04
2022-08-26T08:23:14.513Z,36.69
2022-08-26T08:24:14.553Z,36.69
2022-08-26T08:25:14.598Z,35.72
2022-08-26T08:26:14.644Z,36.37
2022-08-26T08:27:14.716Z,35.40
2022-08-26T08:28:14.776Z,36.37
2022-08-26T08:29:14.844Z,36.69
2022-08-26T08:30:14.910Z,38.30
2022-08-26T08:31:15.042Z,37.33
2022-08-26T08:32:15.473Z,35.72
2022-08-26T08:33:15.139Z,35.08
2022-08-26T08:34:15.151Z,35.08
2022-08-26T08:35:15.222Z,34.76
2022-08-26T08:36:18.626Z,34.43
2022-08-26T08:37:15.355Z,34.76
2022-08-26T08:38:15.393Z,34.11
2022-08-26T08:39:15.456Z,35.08
2022-08-26T08:40:15.590Z,34.76
2022-08-26T08:41:15.576Z,33.79
2022-08-26T08:42:15.625Z,34.11
2022-08-26T08:43:15.686Z,35.40
2022-08-26T08:44:15.829Z,35.08
2022-08-26T08:45:16.870Z,34.43
2022-08-26T08:46:15.914Z,35.72
2022-08-26T08:47:15.918Z,35.40
2022-08-26T08:48:15.968Z,34.43
2022-08-26T08:49:16.042Z,34.76
2022-08-26T08:50:16.088Z,34.76
2022-08-26T08:51:16.130Z,33.14
2022-08-26T08:52:16.209Z,35.40
2022-08-26T08:53:16.267Z,34.11
2022-08-26T08:54:16.297Z,35.08
2022-08-26T08:55:18.184Z,35.40
2022-08-26T08:56:16.457Z,35.08
2022-08-26T08:57:16.524Z,35.40
2022-08-26T08:58:16.570Z,34.76
2022-08-26T08:59:16.705Z,36.37
2022-08-26T09:00:16.669Z,36.04
2022-08-26T09:01:16.800Z,34.76
2022-08-26T09:02:16.801Z,34.43
2022-08-26T09:03:16.866Z,34.76
2022-08-26T09:04:17.352Z,34.76
2022-08-26T09:05:17.001Z,35.72
2022-08-26T09:06:17.390Z,36.37
2022-08-26T09:07:17.143Z,36.04
2022-08-26T09:08:17.182Z,36.04
2022-08-26T09:09:17.290Z,36.69
2022-08-26T09:10:17.364Z,36.04
2022-08-26T09:11:17.428Z,36.37
2022-08-26T09:12:17.482Z,36.37
2022-08-26T09:13:26.265Z,36.37
2022-08-26T09:14:17.565Z,36.69
2022-08-26T09:15:17.647Z,37.33
2022-08-26T09:16:19.204Z,37.98
2022-08-26T09:17:17.757Z,38.30
2022-08-26T09:18:17.808Z,38.62
2022-08-26T09:19:18.832Z,37.66
2022-08-26T09:20:17.993Z,38.30
2022-08-26T09:21:18.029Z,37.33
2022-08-26T09:22:18.091Z,37.98
2022-08-26T09:23:18.293Z,38.62
2022-08-26T09:24:18.234Z,38.30
2022-08-26T09:25:18.678Z,37.33
2022-08-26T09:26:18.354Z,38.30
2022-08-26T09:27:18.407Z,38.30
2022-08-26T09:28:18.448Z,39.27
2022-08-26T09:30:18.556Z,38.62
2022-08-26T09:31:18.690Z,37.66
2022-08-26T09:32:18.655Z,38.62
2022-08-26T09:33:18.760Z,37.66
2022-08-26T09:34:19.095Z,38.62
2022-08-26T09:35:18.873Z,38.62
2022-08-26T09:36:18.911Z,37.33
2022-08-26T09:37:18.996Z,38.30
2022-08-26T09:38:19.036Z,38.95
2022-08-26T09:39:19.091Z,38.30
2022-08-26T09:40:19.251Z,39.59
2022-08-26T09:41:19.263Z,38.95
2022-08-26T09:42:19.377Z,39.27
2022-08-26T09:43:22.740Z,39.59
2022-08-26T09:44:19.393Z,39.27
2022-08-26T09:45:19.463Z,38.95
2022-08-26T09:46:19.653Z,38.95
2022-08-26T09:47:19.623Z,39.27
2022-08-26T09:48:19.667Z,37.01
2022-08-26T09:49:19.747Z,39.91
2022-08-26T09:50:19.819Z,37.33
2022-08-26T09:51:19.881Z,36.04
2022-08-26T09:52:19.970Z,36.69
2022-08-26T09:53:20.962Z,36.69
2022-08-26T09:54:20.775Z,37.66
2022-08-26T09:55:20.129Z,37.01
2022-08-26T09:56:20.165Z,37.33
2022-08-26T09:57:20.256Z,37.01
2022-08-26T09:58:20.311Z,36.37
2022-08-26T09:59:20.396Z,36.04
2022-08-26T10:00:20.487Z,37.01
2022-08-26T10:01:20.614Z,36.69
2022-08-26T10:02:20.598Z,37.01
2022-08-26T10:03:20.662Z,38.30
2022-08-26T10:04:20.821Z,36.37
2022-08-26T10:05:20.786Z,37.66
2022-08-26T10:06:20.854Z,36.69
2022-08-26T10:07:20.943Z,36.69
2022-08-26T10:08:21.001Z,36.37
2022-08-26T10:09:21.064Z,37.01
2022-08-26T10:10:21.104Z,36.37
2022-08-26T10:11:21.172Z,36.04
2022-08-26T10:12:21.248Z,36.04
2022-08-26T10:13:21.341Z,36.37
2022-08-26T10:14:21.395Z,37.33
2022-08-26T10:15:21.416Z,37.66
2022-08-26T10:16:21.547Z,37.01
2022-08-26T10:17:21.586Z,39.27
2022-08-26T10:18:21.705Z,37.01
2022-08-26T10:19:21.682Z,37.33
2022-08-26T10:20:23.435Z,37.66
2022-08-26T10:21:21.815Z,37.66
2022-08-26T10:22:21.880Z,37.66
2022-08-26T10:23:23.275Z,36.69
2022-08-26T10:24:22.027Z,36.04
2022-08-26T10:25:22.071Z,37.01
2022-08-26T10:26:22.137Z,36.69
2022-08-26T10:27:22.234Z,36.69
2022-08-26T10:28:22.273Z,37.01
2022-08-26T10:29:22.338Z,37.33
2022-08-26T10:30:22.478Z,37.66
2022-08-26T10:31:23.027Z,37.66
2022-08-26T10:32:22.637Z,36.37
2022-08-26T10:33:22.634Z,37.66
2022-08-26T10:34:22.685Z,38.95
2022-08-26T10:35:22.758Z,37.01
2022-08-26T10:36:22.833Z,36.69
2022-08-26T10:37:22.903Z,35.72
2022-08-26T10:38:22.953Z,36.69
2022-08-26T10:39:23.028Z,35.08
2022-08-26T10:40:23.161Z,35.72
2022-08-26T10:41:23.163Z,35.40
2022-08-26T10:42:23.220Z,36.04
2022-08-26T10:43:23.272Z,35.72
2022-08-26T10:44:23.357Z,35.72
2022-08-26T10:45:23.429Z,36.04
2022-08-26T10:46:23.590Z,35.72
2022-08-26T10:47:23.563Z,36.37
2022-08-26T10:48:23.637Z,36.69
2022-08-26T10:49:23.724Z,36.69
2022-08-26T10:50:23.817Z,37.01
2022-08-26T10:51:24.339Z,36.04
2022-08-26T10:52:23.938Z,37.01
2022-08-26T10:53:24.903Z,35.40
2022-08-26T10:54:24.071Z,36.37
2022-08-26T10:55:24.121Z,35.08
2022-08-26T10:56:24.217Z,35.08
2022-08-26T10:57:24.276Z,34.76
2022-08-26T10:58:26.574Z,34.11
2022-08-26T10:59:24.431Z,35.08
2022-08-26T11:00:24.481Z,33.14
2022-08-26T11:01:24.598Z,33.47
2022-08-26T11:02:25.231Z,33.14
2022-08-26T11:03:24.730Z,33.79
2022-08-26T11:04:24.808Z,34.11
2022-08-26T11:05:24.832Z,33.14
2022-08-26T11:06:24.946Z,32.82
2022-08-26T11:07:25.000Z,33.14
2022-08-26T11:08:25.217Z,34.76
2022-08-26T11:09:28.795Z,35.72
2022-08-26T11:10:25.233Z,33.47
2022-08-26T11:11:25.276Z,33.47
2022-08-26T11:12:25.356Z,36.37
2022-08-26T11:13:25.435Z,36.37
2022-08-26T11:14:29.779Z,35.72
2022-08-26T11:15:25.587Z,36.37
2022-08-26T11:16:25.760Z,37.33
2022-08-26T11:17:25.728Z,36.69
2022-08-26T11:18:25.797Z,37.01
2022-08-26T11:19:26.365Z,37.01
2022-08-26T11:20:25.940Z,37.33
2022-08-26T11:21:25.984Z,38.62
2022-08-26T11:22:26.056Z,37.33
2022-08-26T11:23:26.121Z,37.66
2022-08-26T11:24:26.189Z,37.66
2022-08-26T11:25:29.973Z,37.33
2022-08-26T11:26:27.526Z,37.33
2022-08-26T11:27:26.391Z,39.27
2022-08-26T11:28:26.418Z,37.01
2022-08-26T11:29:26.496Z,37.33
2022-08-26T11:30:27.389Z,37.33
2022-08-26T11:31:26.907Z,37.33
2022-08-26T11:32:26.638Z,39.59
2022-08-26T11:33:26.716Z,37.01
2022-08-26T11:34:26.791Z,37.33
2022-08-26T11:35:26.853Z,36.04
2022-08-26T11:36:26.896Z,36.37
2022-08-26T11:37:26.961Z,36.37
2022-08-26T11:38:27.015Z,36.69
2022-08-26T11:39:27.085Z,37.66
2022-08-26T11:40:27.198Z,36.04
2022-08-26T11:41:27.202Z,36.04
2022-08-26T11:42:27.817Z,36.04
2022-08-26T11:43:29.785Z,34.76
2022-08-26T11:44:27.373Z,34.11
2022-08-26T11:45:27.494Z,35.72
2022-08-26T11:46:27.457Z,35.40
2022-08-26T11:47:27.526Z,35.40
2022-08-26T11:48:27.584Z,34.76
2022-08-26T11:49:27.867Z,38.30
2022-08-26T11:50:27.688Z,35.08
2022-08-26T11:51:27.778Z,36.69
2022-08-26T11:52:27.817Z,33.79
2022-08-26T11:53:27.902Z,34.43
2022-08-26T11:54:35.203Z,33.79
2022-08-26T11:55:28.034Z,34.43
2022-08-26T11:56:28.816Z,34.11
2022-08-26T11:57:28.146Z,32.18
2022-08-26T11:58:28.209Z,33.79
2022-08-26T11:59:28.323Z,32.50
2022-08-26T12:00:28.334Z,33.14
2022-08-26T12:01:28.404Z,32.50
2022-08-26T12:02:28.436Z,33.14
2022-08-26T12:03:28.585Z,32.18
2022-08-26T12:04:28.713Z,32.50
2022-08-26T12:05:30.891Z,31.86
2022-08-26T12:06:28.669Z,32.50
2022-08-26T12:07:28.851Z,32.50
2022-08-26T12:08:28.845Z,32.18
2022-08-26T12:09:28.894Z,29.60
2022-08-26T12:10:29.490Z,32.82
2022-08-26T12:11:28.991Z,31.86
2022-08-26T12:12:31.787Z,33.14
2022-08-26T12:13:29.158Z,31.86
2022-08-26T12:14:29.215Z,31.53
2022-08-26T12:15:29.542Z,30.89
2022-08-26T12:16:29.353Z,31.86
2022-08-26T12:17:29.373Z,31.53
2022-08-26T12:18:30.181Z,31.21
2022-08-26T12:19:29.492Z,31.21
2022-08-26T12:20:29.526Z,30.57
2022-08-26T12:21:29.595Z,30.89
2022-08-26T12:22:29.742Z,30.57
2022-08-26T12:23:29.702Z,31.53
2022-08-26T12:24:29.737Z,30.24
2022-08-26T12:25:30.658Z,30.89
2022-08-26T12:26:29.871Z,30.24
2022-08-26T12:27:30.044Z,29.28
2022-08-26T12:28:29.995Z,30.24
2022-08-26T12:29:30.101Z,29.60
2022-08-26T12:30:30.211Z,29.92
2022-08-26T12:31:30.228Z,29.60
2022-08-26T12:32:30.270Z,29.92
2022-08-26T12:33:30.335Z,29.60
2022-08-26T12:34:30.423Z,29.28
2022-08-26T12:35:30.469Z,29.60
2022-08-26T12:36:30.535Z,29.28
2022-08-26T12:37:30.571Z,28.96
2022-08-26T12:38:30.741Z,28.31
2022-08-26T12:39:30.732Z,29.28
2022-08-26T12:40:30.961Z,28.96
2022-08-26T12:41:30.817Z,27.67
2022-08-26T12:42:30.886Z,28.96
2022-08-26T12:43:30.963Z,29.28
2022-08-26T12:44:31.031Z,28.96
2022-08-26T12:45:31.244Z,29.28
2022-08-26T12:46:31.139Z,28.63
2022-08-26T12:47:42.021Z,28.96
2022-08-26T12:48:31.290Z,28.96
2022-08-26T12:49:31.349Z,27.99
2022-08-26T12:50:31.374Z,27.67
2022-08-26T12:51:31.451Z,28.96
2022-08-26T12:52:31.493Z,28.31
2022-08-26T12:53:31.650Z,29.92
2022-08-26T12:54:31.603Z,29.28